Terminal Aerodrome Forecast
Issued by NWS Northern Indiana

Home | Current Version | Previous Version | Text Only | Print | Product List | Glossary Off
Versions: 1 2 3 4 5 6 7 8 9 10 11 12 13 14 15 16

156
FTUS43 KIWX 050538
TAFFWA
TAF
KFWA 050538Z 0506/0606 26010KT 5SM BR OVC008
     FM051100 25005KT 1SM BR OVC003
     FM051500 21008KT P6SM OVC008
     FM060000 11005KT P6SM BKN150=

USA.gov is the U.S. government's official web portal to all federal, state and local government web resources and services.